Time;durP1;ratioP1;P1;durP2;ratioP2;P2;SDS_P1;SDS_P2;PMS_P1;PMS_P2;Temp;Humidity;BMP_temperature;BMP_pressure;BME280_temperature;BME280_humidity;BME280_pressure;Samples;Min_cycle;Max_cycle;Signal;HPM_P1;HPM_P2
2021/09/06 00:00:16;;;;;;;12.50;8.57;;;25.40;43.70;;;;;;5071602;28;20590;-64
2021/09/06 00:02:43;;;;;;;16.65;8.63;;;25.40;43.70;;;;;;5054465;28;20024;-65
2021/09/06 00:05:10;;;;;;;13.68;9.38;;;25.40;43.60;;;;;;5053759;28;20037;-66
2021/09/06 00:07:38;;;;;;;11.38;7.97;;;25.40;43.70;;;;;;5072331;28;20232;-63
2021/09/06 00:10:33;;;;;;;11.75;8.32;;;25.40;43.60;;;;;;5071102;28;20178;-63
2021/09/06 00:13:00;;;;;;;12.10;8.20;;;25.40;43.60;;;;;;5062435;28;20036;-63
2021/09/06 00:15:27;;;;;;;10.38;7.35;;;25.30;43.60;;;;;;5054062;28;20102;-64
2021/09/06 00:17:53;;;;;;;13.02;8.07;;;25.30;43.40;;;;;;5071787;28;20089;-65
2021/09/06 00:20:20;;;;;;;10.75;7.88;;;25.30;43.40;;;;;;5071208;28;20107;-64
2021/09/06 00:22:46;;;;;;;12.25;7.53;;;25.30;43.40;;;;;;5071891;28;20025;-64
2021/09/06 00:25:12;;;;;;;10.48;7.68;;;25.30;43.40;;;;;;5052295;28;20048;-64
2021/09/06 00:27:38;;;;;;;9.80;7.47;;;25.30;43.50;;;;;;5071512;28;20103;-64
2021/09/06 00:30:05;;;;;;;9.77;7.22;;;25.30;43.50;;;;;;5070644;28;20033;-64
2021/09/06 00:32:30;;;;;;;13.00;7.43;;;25.30;43.40;;;;;;5071629;28;20368;-64
2021/09/06 00:34:56;;;;;;;8.98;6.50;;;25.30;43.40;;;;;;5053279;28;20523;-63
2021/09/06 00:37:22;;;;;;;9.93;6.90;;;25.30;43.40;;;;;;5053070;28;20458;-64
2021/09/06 00:39:48;;;;;;;10.82;6.68;;;25.30;43.40;;;;;;5071635;28;20123;-63
2021/09/06 00:42:14;;;;;;;15.40;7.07;;;25.30;43.40;;;;;;5070761;28;20040;-64
2021/09/06 00:44:40;;;;;;;8.45;6.22;;;25.30;43.40;;;;;;5070145;28;20055;-63
2021/09/06 00:47:06;;;;;;;13.57;6.88;;;25.30;43.40;;;;;;5070423;28;20056;-63
2021/09/06 00:49:32;;;;;;;10.90;6.78;;;25.30;43.40;;;;;;5052472;28;20118;-63
2021/09/06 00:51:58;;;;;;;12.90;6.90;;;25.30;43.40;;;;;;5070294;28;20478;-63
2021/09/06 00:54:24;;;;;;;8.95;6.57;;;25.30;43.30;;;;;;5071031;28;20032;-63
2021/09/06 00:56:52;;;;;;;11.30;6.57;;;25.30;43.40;;;;;;5071639;28;20077;-63
2021/09/06 00:59:18;;;;;;;9.68;6.68;;;25.30;43.40;;;;;;5070382;28;20111;-62
2021/09/06 01:01:44;;;;;;;7.47;5.70;;;25.30;43.40;;;;;;5036545;28;20056;-63
2021/09/06 01:04:10;;;;;;;9.80;6.53;;;25.30;43.40;;;;;;5070917;28;20024;-64
2021/09/06 01:06:36;;;;;;;10.52;6.40;;;25.20;43.40;;;;;;5069686;28;20031;-63
2021/09/06 01:09:01;;;;;;;8.85;5.68;;;25.20;43.30;;;;;;5070136;28;20040;-64
2021/09/06 01:11:27;;;;;;;7.97;5.70;;;25.20;43.10;;;;;;5070382;28;20138;-63
2021/09/06 01:13:53;;;;;;;7.90;5.78;;;25.20;43.00;;;;;;5070353;28;20032;-64
2021/09/06 01:16:22;;;;;;;9.02;6.35;;;25.20;43.00;;;;;;5069952;28;20024;-63
2021/09/06 01:18:48;;;;;;;8.35;6.07;;;25.20;43.40;;;;;;5052916;28;20029;-62
2021/09/06 01:21:15;;;;;;;7.93;6.03;;;25.20;43.50;;;;;;5051168;28;20460;-63
2021/09/06 01:23:41;;;;;;;9.23;6.05;;;25.20;43.60;;;;;;5051605;28;20024;-64
2021/09/06 01:26:07;;;;;;;8.85;5.72;;;25.20;43.60;;;;;;5051841;28;20481;-63
2021/09/06 01:28:34;;;;;;;8.00;6.28;;;25.20;43.60;;;;;;5052561;28;20036;-63
2021/09/06 01:31:00;;;;;;;9.52;5.53;;;25.20;43.60;;;;;;5070534;28;20021;-63
2021/09/06 01:33:26;;;;;;;7.68;5.55;;;25.30;43.60;;;;;;5070521;28;20031;-62
2021/09/06 01:35:52;;;;;;;8.73;6.32;;;25.20;43.60;;;;;;5053412;28;20028;-62
2021/09/06 01:38:18;;;;;;;9.43;6.43;;;25.30;43.60;;;;;;5073939;28;20032;-63
2021/09/06 01:40:44;;;;;;;8.10;6.53;;;25.30;43.60;;;;;;5056614;28;20029;-63
2021/09/06 01:43:10;;;;;;;8.50;6.45;;;25.30;43.60;;;;;;5073683;28;20027;-63
2021/09/06 01:45:37;;;;;;;7.57;5.93;;;25.30;43.70;;;;;;5074429;28;20031;-63
2021/09/06 01:48:03;;;;;;;8.10;6.20;;;25.30;43.80;;;;;;5055470;28;20089;-64
2021/09/06 01:50:29;;;;;;;8.35;6.63;;;25.30;43.70;;;;;;5053532;28;20469;-63
2021/09/06 01:52:55;;;;;;;8.00;6.28;;;25.30;43.70;;;;;;5073507;28;20032;-63
2021/09/06 01:55:21;;;;;;;8.80;5.93;;;25.30;43.70;;;;;;5073344;28;20052;-62
2021/09/06 01:57:47;;;;;;;7.47;5.93;;;25.30;43.70;;;;;;5056449;28;20048;-63
2021/09/06 02:00:13;;;;;;;9.00;6.47;;;25.30;43.70;;;;;;5073658;28;20515;-63
2021/09/06 02:02:39;;;;;;;7.70;5.50;;;25.30;43.70;;;;;;5056288;28;20029;-63
2021/09/06 02:05:06;;;;;;;9.05;6.65;;;25.30;43.70;;;;;;5073446;28;20409;-63
2021/09/06 02:07:31;;;;;;;7.70;5.95;;;25.30;43.70;;;;;;5074339;28;20034;-63
2021/09/06 02:09:57;;;;;;;6.97;5.63;;;25.30;43.70;;;;;;5073633;28;20041;-62
2021/09/06 02:12:23;;;;;;;7.18;5.85;;;25.30;43.70;;;;;;5073711;28;20107;-62
2021/09/06 02:14:49;;;;;;;7.82;5.78;;;25.30;43.70;;;;;;5074126;28;20103;-62
2021/09/06 02:17:15;;;;;;;6.97;5.80;;;25.30;43.70;;;;;;5073494;28;20035;-62
2021/09/06 02:19:40;;;;;;;8.25;5.68;;;25.30;43.70;;;;;;5073657;28;20119;-62
2021/09/06 02:22:06;;;;;;;7.75;5.68;;;25.30;43.70;;;;;;5073176;28;20081;-62
2021/09/06 02:24:32;;;;;;;6.78;5.45;;;25.30;43.70;;;;;;5073965;28;20040;-62
2021/09/06 02:26:57;;;;;;;8.32;5.75;;;25.30;43.80;;;;;;5055459;28;20024;-62
2021/09/06 02:29:23;;;;;;;8.73;5.07;;;25.20;43.70;;;;;;5073755;28;20042;-62
2021/09/06 02:31:50;;;;;;;6.75;5.28;;;25.30;43.80;;;;;;5073647;28;20025;-62
2021/09/06 02:34:16;;;;;;;7.93;5.25;;;25.30;43.80;;;;;;5055187;28;20032;-63
2021/09/06 02:36:41;;;;;;;6.68;5.45;;;25.30;43.80;;;;;;5055785;28;20028;-62
2021/09/06 02:39:07;;;;;;;7.18;5.80;;;25.30;43.80;;;;;;5055165;28;20040;-62
2021/09/06 02:41:33;;;;;;;9.90;5.55;;;25.30;43.80;;;;;;5073100;28;20020;-62
2021/09/06 02:43:59;;;;;;;6.97;5.18;;;25.30;43.80;;;;;;5055176;28;20020;-62
2021/09/06 02:46:24;;;;;;;6.68;5.15;;;25.30;43.90;;;;;;5054852;28;20476;-62
2021/09/06 02:48:50;;;;;;;6.93;5.30;;;25.30;43.80;;;;;;5073080;28;20090;-62
2021/09/06 02:51:16;;;;;;;9.15;5.53;;;25.30;43.80;;;;;;5072730;28;20185;-62
2021/09/06 02:53:42;;;;;;;6.25;5.45;;;25.30;43.90;;;;;;5073673;28;20067;-62
2021/09/06 02:56:07;;;;;;;7.82;5.85;;;25.20;43.80;;;;;;5054059;28;20480;-62
2021/09/06 02:58:33;;;;;;;7.60;5.40;;;25.20;43.80;;;;;;5073122;28;20511;-62
2021/09/06 03:00:59;;;;;;;6.70;5.40;;;25.20;43.80;;;;;;5054911;28;20047;-62
2021/09/06 03:03:24;;;;;;;7.57;5.13;;;25.20;43.80;;;;;;5072965;28;20023;-63
2021/09/06 03:05:51;;;;;;;6.40;4.88;;;25.20;43.80;;;;;;5073309;28;20115;-62
2021/09/06 03:08:17;;;;;;;9.27;4.97;;;25.20;43.80;;;;;;5072607;28;20372;-62
2021/09/06 03:10:43;;;;;;;6.25;5.30;;;25.20;43.80;;;;;;5072929;28;20484;-62
2021/09/06 03:13:08;;;;;;;6.30;4.85;;;25.20;43.80;;;;;;5072616;28;20029;-62
2021/09/06 03:15:34;;;;;;;7.38;5.20;;;25.20;44.40;;;;;;5072796;28;20427;-62
2021/09/06 03:18:00;;;;;;;7.70;5.10;;;25.20;44.40;;;;;;5054495;28;20035;-62
2021/09/06 03:20:25;;;;;;;7.70;5.32;;;25.20;43.80;;;;;;5054966;28;20024;-63
2021/09/06 03:22:51;;;;;;;6.28;5.05;;;25.20;43.80;;;;;;5072727;28;20031;-63
2021/09/06 03:25:17;;;;;;;7.47;5.35;;;25.20;43.80;;;;;;5071900;28;20382;-63
2021/09/06 03:27:42;;;;;;;6.10;5.22;;;25.20;43.80;;;;;;5073168;28;20108;-63
2021/09/06 03:30:09;;;;;;;6.45;5.13;;;25.20;43.80;;;;;;5072346;28;20490;-63
2021/09/06 03:32:35;;;;;;;6.65;4.85;;;25.20;43.80;;;;;;5072555;28;20024;-63
2021/09/06 03:35:00;;;;;;;7.00;5.05;;;25.20;43.90;;;;;;5054279;28;20024;-63
2021/09/06 03:37:26;;;;;;;6.18;4.82;;;25.20;43.90;;;;;;5054849;28;20442;-63
2021/09/06 03:39:52;;;;;;;5.97;5.00;;;25.20;43.80;;;;;;5072713;28;20040;-63
2021/09/06 03:42:18;;;;;;;6.72;5.20;;;25.20;43.80;;;;;;5072045;28;20102;-63
2021/09/06 03:44:43;;;;;;;5.65;4.90;;;25.20;43.80;;;;;;5054778;28;20029;-65
2021/09/06 03:47:09;;;;;;;5.40;4.20;;;25.20;43.80;;;;;;5071820;28;20413;-63
2021/09/06 03:49:35;;;;;;;5.85;4.78;;;25.20;43.80;;;;;;5054783;28;20474;-63
2021/09/06 03:52:01;;;;;;;5.75;4.60;;;25.20;43.80;;;;;;5072157;28;20047;-63
2021/09/06 03:54:28;;;;;;;6.47;4.80;;;25.20;43.80;;;;;;5072367;28;20029;-63
2021/09/06 03:56:53;;;;;;;5.82;4.88;;;25.20;43.80;;;;;;5072693;28;20024;-63
2021/09/06 03:59:19;;;;;;;6.72;4.65;;;25.20;43.80;;;;;;5071543;28;20054;-63
2021/09/06 04:01:46;;;;;;;5.97;4.57;;;25.20;43.90;;;;;;5055599;28;20035;-63
2021/09/06 04:04:11;;;;;;;7.57;4.80;;;25.20;43.80;;;;;;5072491;28;20028;-63
2021/09/06 04:06:37;;;;;;;6.32;4.70;;;25.20;43.80;;;;;;5072718;28;20024;-63
2021/09/06 04:09:03;;;;;;;6.03;4.50;;;25.10;43.70;;;;;;5072684;28;20032;-65
2021/09/06 04:11:28;;;;;;;5.72;4.43;;;25.10;43.80;;;;;;5073171;28;20020;-63
2021/09/06 04:13:54;;;;;;;5.60;4.50;;;25.10;43.80;;;;;;5055637;28;20060;-63
2021/09/06 04:16:20;;;;;;;6.55;4.75;;;25.10;43.80;;;;;;5072273;28;20046;-63
2021/09/06 04:18:46;;;;;;;5.20;4.10;;;25.10;43.80;;;;;;5072499;28;20103;-64
2021/09/06 04:21:11;;;;;;;5.78;4.60;;;25.10;43.80;;;;;;5071927;28;20480;-63
2021/09/06 04:23:39;;;;;;;6.88;4.80;;;25.10;43.80;;;;;;5071624;28;20050;-63
2021/09/06 04:26:05;;;;;;;5.32;4.13;;;25.10;43.80;;;;;;5071221;28;20079;-63
2021/09/06 04:28:31;;;;;;;5.53;4.35;;;25.10;43.90;;;;;;5071398;28;20032;-63
2021/09/06 04:30:57;;;;;;;6.80;4.70;;;25.10;43.80;;;;;;5053777;28;20047;-63
2021/09/06 04:33:23;;;;;;;6.57;4.53;;;25.10;43.80;;;;;;5053337;28;20053;-65
2021/09/06 04:35:50;;;;;;;5.25;4.38;;;25.10;43.90;;;;;;5071367;28;20024;-63
2021/09/06 04:38:15;;;;;;;5.63;4.53;;;25.10;43.90;;;;;;5070759;28;20072;-65
2021/09/06 04:40:41;;;;;;;5.45;4.20;;;25.10;43.90;;;;;;5071261;28;20039;-63
2021/09/06 04:43:07;;;;;;;6.47;4.47;;;25.10;43.90;;;;;;5070457;28;20028;-63
2021/09/06 04:45:32;;;;;;;9.20;4.78;;;25.10;43.90;;;;;;5071247;28;20459;-63
2021/09/06 04:47:59;;;;;;;5.57;4.65;;;25.10;43.80;;;;;;5071178;28;20027;-62
2021/09/06 04:50:25;;;;;;;6.70;4.22;;;25.10;43.80;;;;;;5037013;28;20104;-63
2021/09/06 04:52:55;;;;;;;6.70;4.63;;;25.10;43.90;;;;;;5070969;28;20107;-63
2021/09/06 04:55:21;;;;;;;6.15;4.20;;;25.10;43.90;;;;;;5052794;28;20359;-63
2021/09/06 04:57:47;;;;;;;5.22;4.05;;;25.10;43.80;;;;;;5053087;28;20465;-63
2021/09/06 05:00:14;;;;;;;5.55;4.60;;;25.10;43.90;;;;;;5052468;28;20255;-64
2021/09/06 05:02:39;;;;;;;6.47;4.28;;;25.10;43.90;;;;;;5053018;28;20050;-63
2021/09/06 05:05:06;;;;;;;5.82;4.38;;;25.10;43.90;;;;;;5070405;28;20378;-63
2021/09/06 05:07:31;;;;;;;6.28;4.35;;;25.10;43.90;;;;;;5071189;28;20027;-63
2021/09/06 05:09:57;;;;;;;5.03;4.20;;;25.10;43.90;;;;;;5070672;28;20389;-63
2021/09/06 05:12:23;;;;;;;5.65;4.40;;;25.10;44.00;;;;;;5070680;28;20070;-63
2021/09/06 05:14:48;;;;;;;7.13;4.50;;;25.10;43.90;;;;;;5071019;28;20028;-65
2021/09/06 05:17:14;;;;;;;6.53;4.65;;;25.10;43.90;;;;;;5052571;28;20388;-64
2021/09/06 05:19:40;;;;;;;6.65;4.57;;;25.10;43.90;;;;;;5052965;28;20058;-63
2021/09/06 05:22:06;;;;;;;6.97;4.80;;;25.10;43.90;;;;;;5070228;28;20021;-63
2021/09/06 05:24:31;;;;;;;6.95;4.32;;;25.10;43.90;;;;;;5052578;28;20477;-63
2021/09/06 05:26:57;;;;;;;6.45;4.60;;;25.20;43.90;;;;;;5052903;28;20029;-63
2021/09/06 05:29:23;;;;;;;6.38;4.40;;;25.10;43.90;;;;;;5070575;28;20033;-64
2021/09/06 05:31:48;;;;;;;6.03;4.60;;;25.10;43.80;;;;;;5070646;28;20445;-63
2021/09/06 05:34:14;;;;;;;7.72;4.78;;;25.10;43.80;;;;;;5070093;28;20481;-63
2021/09/06 05:36:40;;;;;;;6.82;4.90;;;25.10;43.80;;;;;;5052827;28;20055;-64
2021/09/06 05:39:05;;;;;;;5.32;4.10;;;25.10;43.80;;;;;;5070121;28;20381;-63
2021/09/06 05:41:31;;;;;;;7.35;4.45;;;25.10;44.50;;;;;;5052678;28;20029;-63
2021/09/06 05:43:57;;;;;;;6.95;4.35;;;25.10;43.90;;;;;;5070243;28;20020;-63
2021/09/06 05:46:23;;;;;;;6.55;4.60;;;25.10;43.90;;;;;;5051751;28;20031;-63
2021/09/06 05:49:07;;;;;;;9.18;4.78;;;25.10;43.70;;;;;;5070243;28;20033;-63
2021/09/06 05:51:33;;;;;;;7.28;4.70;;;25.10;43.70;;;;;;5070348;28;20032;-63
2021/09/06 05:53:58;;;;;;;11.02;4.75;;;25.10;43.80;;;;;;5052576;28;20029;-63
2021/09/06 05:56:24;;;;;;;10.65;4.93;;;25.10;43.80;;;;;;5052089;28;20025;-63
2021/09/06 05:58:50;;;;;;;6.68;4.95;;;25.10;43.80;;;;;;5052315;28;20511;-65
2021/09/06 06:01:15;;;;;;;22.60;5.82;;;25.10;43.80;;;;;;5070176;28;20362;-61
2021/09/06 06:04:00;;;;;;;13.40;5.10;;;25.10;43.80;;;;;;5069911;28;20024;-61
2021/09/06 06:06:26;;;;;;;10.68;5.10;;;25.10;43.90;;;;;;5052504;28;20462;-59
2021/09/06 06:08:52;;;;;;;14.80;5.03;;;25.10;43.80;;;;;;5052401;28;20028;-54
2021/09/06 06:11:18;;;;;;;9.93;5.32;;;25.10;43.70;;;;;;5051846;28;20075;-58
2021/09/06 06:13:45;;;;;;;22.40;6.03;;;25.20;43.90;;;;;;5052351;28;20032;-52
2021/09/06 06:16:10;;;;;;;16.30;5.13;;;25.20;44.00;;;;;;5069487;28;20066;-55
2021/09/06 06:18:36;;;;;;;11.73;5.18;;;25.20;44.00;;;;;;5052275;28;20052;-56
2021/09/06 06:21:02;;;;;;;7.55;4.82;;;25.20;44.00;;;;;;5051278;28;20063;-60
2021/09/06 06:23:27;;;;;;;11.65;5.15;;;25.20;43.90;;;;;;5073891;28;20029;-56
2021/09/06 06:25:53;;;;;;;14.40;5.00;;;25.20;43.90;;;;;;5072902;28;20129;-52
2021/09/06 06:28:19;;;;;;;10.50;5.78;;;25.20;43.80;;;;;;5072630;28;20138;-52
2021/09/06 06:30:45;;;;;;;20.25;5.80;;;25.20;43.90;;;;;;5073503;28;20032;-54
2021/09/06 06:33:11;;;;;;;19.73;5.60;;;25.20;43.90;;;;;;5054425;28;20546;-56
2021/09/06 06:35:38;;;;;;;12.93;5.20;;;25.20;43.90;;;;;;5073453;28;20024;-55
2021/09/06 06:38:04;;;;;;;10.45;5.35;;;25.30;44.00;;;;;;5074867;28;20024;-58
2021/09/06 06:40:29;;;;;;;12.52;4.93;;;25.20;43.90;;;;;;5073922;28;20150;-52
2021/09/06 06:42:55;;;;;;;25.85;6.30;;;25.20;44.10;;;;;;5055520;28;20064;-56
2021/09/06 06:45:21;;;;;;;13.82;5.93;;;25.30;43.60;;;;;;5072596;28;20509;-54
2021/09/06 06:47:47;;;;;;;13.63;6.30;;;25.20;42.60;;;;;;5055307;28;20465;-56
2021/09/06 06:50:13;;;;;;;10.18;6.20;;;25.20;42.10;;;;;;5054724;28;20032;-54
2021/09/06 06:52:39;;;;;;;14.07;6.18;;;25.00;41.70;;;;;;5073216;28;20033;-55
2021/09/06 06:55:06;;;;;;;13.65;6.97;;;24.90;41.60;;;;;;5072505;28;20025;-56
2021/09/06 06:57:32;;;;;;;12.20;6.03;;;24.80;41.50;;;;;;5055235;28;20029;-56
2021/09/06 06:59:57;;;;;;;14.38;6.15;;;24.80;41.60;;;;;;5073469;28;20034;-56
2021/09/06 07:02:23;;;;;;;14.43;6.18;;;24.70;41.80;;;;;;5072338;28;20103;-55
2021/09/06 07:04:49;;;;;;;20.20;6.70;;;24.60;41.90;;;;;;5055028;28;20066;-56
2021/09/06 07:07:15;;;;;;;11.13;6.05;;;24.60;42.10;;;;;;5072182;28;20098;-56
2021/09/06 07:09:40;;;;;;;15.45;6.85;;;24.60;42.30;;;;;;5054602;28;20043;-56
2021/09/06 07:12:06;;;;;;;13.13;6.63;;;24.60;42.20;;;;;;5072212;28;20103;-52
2021/09/06 07:14:32;;;;;;;12.63;6.55;;;24.50;42.20;;;;;;5072632;28;20355;-51
2021/09/06 07:16:57;;;;;;;13.80;6.32;;;24.60;42.20;;;;;;5054697;28;20096;-55
2021/09/06 07:19:23;;;;;;;11.70;6.20;;;24.60;42.30;;;;;;5053835;28;20028;-53
2021/09/06 07:21:49;;;;;;;13.52;7.00;;;24.60;42.40;;;;;;5054411;28;20074;-55
2021/09/06 07:24:14;;;;;;;12.52;6.75;;;24.60;42.40;;;;;;5071540;28;20028;-53
2021/09/06 07:26:40;;;;;;;17.58;7.05;;;24.60;42.30;;;;;;5072309;28;20028;-52
2021/09/06 07:29:06;;;;;;;13.02;7.28;;;24.60;42.20;;;;;;5071431;28;20405;-53
2021/09/06 07:31:31;;;;;;;15.82;6.72;;;24.60;42.20;;;;;;5072702;28;20369;-56
2021/09/06 07:33:57;;;;;;;11.70;6.88;;;24.60;42.30;;;;;;5071856;28;20462;-55
2021/09/06 07:36:23;;;;;;;12.82;8.15;;;24.60;42.40;;;;;;5071977;28;20219;-53
2021/09/06 07:38:48;;;;;;;11.15;7.07;;;24.60;42.30;;;;;;5072232;28;20031;-53
2021/09/06 07:41:14;;;;;;;19.13;8.10;;;24.60;42.20;;;;;;5071468;28;20032;-54
2021/09/06 07:43:43;;;;;;;17.33;7.63;;;24.60;42.20;;;;;;5072548;28;20056;-54
2021/09/06 07:46:09;;;;;;;11.63;7.07;;;24.60;42.30;;;;;;5071120;28;20086;-55
2021/09/06 07:48:35;;;;;;;12.65;7.05;;;24.60;42.30;;;;;;5071527;28;20076;-58
2021/09/06 07:51:00;;;;;;;11.55;7.40;;;24.60;42.10;;;;;;5071467;28;20046;-56
2021/09/06 07:53:26;;;;;;;13.18;7.32;;;24.60;42.10;;;;;;5053232;28;20025;-53
2021/09/06 07:55:52;;;;;;;14.60;7.68;;;24.60;42.20;;;;;;5071700;28;20047;-53
2021/09/06 07:58:18;;;;;;;12.43;6.60;;;24.50;42.20;;;;;;5053372;28;20033;-58
2021/09/06 08:00:44;;;;;;;15.88;6.97;;;24.60;42.30;;;;;;5053515;28;20046;-53
2021/09/06 08:03:09;;;;;;;14.57;6.93;;;24.50;42.20;;;;;;5071223;28;20030;-55
2021/09/06 08:05:35;;;;;;;24.35;11.43;;;24.60;42.30;;;;;;5053717;28;20025;-54
2021/09/06 08:08:01;;;;;;;15.13;9.23;;;24.50;42.20;;;;;;5053373;28;20103;-54
2021/09/06 08:10:27;;;;;;;15.45;8.20;;;24.50;42.20;;;;;;5070544;28;20029;-54
2021/09/06 08:12:53;;;;;;;15.55;8.10;;;24.50;42.30;;;;;;5052918;28;20024;-56
2021/09/06 08:15:19;;;;;;;14.25;7.88;;;24.50;42.50;;;;;;5070738;28;20050;-52
2021/09/06 08:17:45;;;;;;;12.30;6.88;;;24.50;42.50;;;;;;5071122;28;20020;-54
2021/09/06 08:20:14;;;;;;;15.25;7.43;;;24.50;42.40;;;;;;5052628;28;20504;-54
2021/09/06 08:22:41;;;;;;;13.63;7.20;;;24.60;42.40;;;;;;5071024;28;20021;-55
2021/09/06 08:25:09;;;;;;;16.75;6.20;;;24.60;42.40;;;;;;5052484;28;20048;-54
2021/09/06 08:27:35;;;;;;;11.40;6.53;;;24.60;42.30;;;;;;5053147;28;20056;-54
2021/09/06 08:30:01;;;;;;;11.15;6.97;;;24.60;42.30;;;;;;5071085;28;20355;-54
2021/09/06 08:32:27;;;;;;;17.65;7.10;;;24.60;42.40;;;;;;5069927;28;20433;-53
2021/09/06 08:34:54;;;;;;;16.52;6.78;;;24.60;42.30;;;;;;5052987;28;20059;-50
2021/09/06 08:37:20;;;;;;;14.90;6.82;;;24.60;42.40;;;;;;5052203;28;20404;-53
2021/09/06 08:39:46;;;;;;;13.90;7.57;;;24.60;42.40;;;;;;5052770;28;20036;-54
2021/09/06 08:42:14;;;;;;;11.75;7.00;;;24.60;42.40;;;;;;5052486;28;20139;-51
2021/09/06 08:44:43;;;;;;;14.85;7.63;;;24.60;42.40;;;;;;5051847;28;20032;-53
2021/09/06 08:47:09;;;;;;;19.35;7.70;;;24.60;42.40;;;;;;5070338;28;20024;-54
2021/09/06 08:49:35;;;;;;;17.20;6.95;;;24.60;42.30;;;;;;5070530;28;20120;-52
2021/09/06 08:52:00;;;;;;;14.05;6.53;;;24.60;42.40;;;;;;5052700;28;20432;-54
2021/09/06 08:54:26;;;;;;;13.75;6.45;;;24.60;42.50;;;;;;5070022;28;20378;-53
2021/09/06 08:56:52;;;;;;;10.35;6.70;;;24.60;42.50;;;;;;5070692;28;20032;-54
2021/09/06 08:59:19;;;;;;;16.20;6.65;;;24.60;42.50;;;;;;5069842;28;20052;-50
2021/09/06 09:01:53;;;;;;;17.23;7.60;;;24.60;42.60;;;;;;5070369;28;20127;-52
2021/09/06 09:04:20;;;;;;;16.40;7.72;;;24.60;42.50;;;;;;5070068;28;20025;-50
2021/09/06 09:06:58;;;;;;;16.27;7.68;;;24.60;42.50;;;;;;5052701;28;20063;-56
2021/09/06 09:09:29;;;;;;;12.15;6.45;;;24.60;42.50;;;;;;5069911;28;20111;-54
2021/09/06 09:12:16;;;;;;;14.75;7.07;;;24.60;42.50;;;;;;5070243;28;20397;-55
2021/09/06 09:14:50;;;;;;;13.65;7.47;;;24.60;42.50;;;;;;5052125;28;20040;-53
2021/09/06 09:17:16;;;;;;;15.23;7.97;;;24.70;42.60;;;;;;5069732;28;20093;-57
2021/09/06 09:19:42;;;;;;;15.93;7.68;;;24.70;42.70;;;;;;5069868;28;20120;-55
2021/09/06 09:22:15;;;;;;;11.77;7.38;;;24.70;42.80;;;;;;5051402;28;20063;-55
2021/09/06 09:24:42;;;;;;;16.57;8.57;;;24.80;42.80;;;;;;5051996;28;20048;-51
2021/09/06 09:27:11;;;;;;;14.52;7.55;;;24.80;42.80;;;;;;5069333;28;20028;-54
2021/09/06 09:29:41;;;;;;;11.35;7.28;;;24.80;42.70;;;;;;5069341;28;20512;-52
2021/09/06 09:32:12;;;;;;;13.10;7.68;;;24.90;42.70;;;;;;5051181;28;20044;-58
2021/09/06 09:34:40;;;;;;;15.10;7.32;;;24.90;42.60;;;;;;5051904;28;20021;-55
2021/09/06 09:37:08;;;;;;;11.18;6.35;;;24.90;42.50;;;;;;5069936;28;20020;-58
2021/09/06 09:39:34;;;;;;;11.88;6.80;;;24.90;42.50;;;;;;5069959;28;20036;-58
2021/09/06 09:42:09;;;;;;;10.82;6.60;;;24.90;42.70;;;;;;5070045;28;20492;-54
2021/09/06 09:44:47;;;;;;;12.25;7.07;;;25.00;42.80;;;;;;5069991;28;20189;-55
2021/09/06 09:47:14;;;;;;;11.35;6.50;;;25.00;42.90;;;;;;5051953;28;20373;-54
2021/09/06 09:49:43;;;;;;;13.10;7.20;;;25.10;43.00;;;;;;5051456;28;20036;-57
2021/09/06 09:52:09;;;;;;;10.02;6.47;;;25.10;42.90;;;;;;5050999;28;20024;-53
2021/09/06 09:54:35;;;;;;;18.27;6.53;;;25.10;42.60;;;;;;5051646;28;20032;-55
2021/09/06 09:57:01;;;;;;;14.27;6.40;;;25.10;42.60;;;;;;5053036;28;20028;-55
2021/09/06 09:59:27;;;;;;;21.70;6.88;;;25.20;42.70;;;;;;5055124;28;20032;-53
2021/09/06 10:02:27;;;;;;;19.30;7.28;;;25.20;42.70;;;;;;5054568;28;20020;-56
2021/09/06 10:05:03;;;;;;;14.65;6.90;;;25.20;42.70;;;;;;5012147;28;20394;-56
2021/09/06 10:07:34;;;;;;;15.60;7.32;;;25.20;42.70;;;;;;5073511;28;20028;-53
2021/09/06 10:10:17;;;;;;;12.32;7.32;;;25.30;42.70;;;;;;5054472;28;20029;-54
2021/09/06 10:12:44;;;;;;;15.38;7.18;;;25.30;42.70;;;;;;5054907;28;20377;-54
2021/09/06 10:15:11;;;;;;;16.05;7.63;;;25.30;42.70;;;;;;5054755;28;20020;-55
2021/09/06 10:17:39;;;;;;;10.95;6.50;;;25.30;42.60;;;;;;5072972;28;20100;-53
2021/09/06 10:20:11;;;;;;;12.50;6.40;;;25.30;42.70;;;;;;5054313;28;20029;-56
2021/09/06 10:22:38;;;;;;;11.07;5.95;;;25.30;42.80;;;;;;5072500;28;20028;-58
2021/09/06 10:25:06;;;;;;;12.73;6.10;;;25.30;42.80;;;;;;5072022;28;20117;-54
2021/09/06 10:27:36;;;;;;;11.70;6.82;;;25.30;42.80;;;;;;5054567;28;20111;-54
2021/09/06 10:30:08;;;;;;;10.32;6.28;;;25.30;43.00;;;;;;5054370;28;20028;-52
2021/09/06 10:32:39;;;;;;;12.52;6.22;;;25.40;43.00;;;;;;5054819;28;20123;-52
2021/09/06 10:35:11;;;;;;;11.18;6.55;;;25.40;43.00;;;;;;5071598;28;20496;-52
2021/09/06 10:37:39;;;;;;;10.07;6.35;;;25.40;43.00;;;;;;5053548;28;20500;-55
2021/09/06 10:40:10;;;;;;;12.65;6.38;;;25.50;43.10;;;;;;5072182;28;20062;-61
2021/09/06 10:42:38;;;;;;;12.73;7.00;;;25.50;43.10;;;;;;5072033;28;20530;-52
2021/09/06 10:45:05;;;;;;;13.68;6.28;;;25.50;43.10;;;;;;5070638;28;20055;-58
2021/09/06 10:47:39;;;;;;;13.98;6.65;;;25.50;43.10;;;;;;5072421;28;20021;-54
2021/09/06 10:50:17;;;;;;;12.82;6.13;;;25.50;43.00;;;;;;5071405;28;20485;-53
2021/09/06 10:52:45;;;;;;;9.25;6.53;;;25.60;43.10;;;;;;5054277;28;20028;-51
2021/09/06 10:55:12;;;;;;;11.82;6.85;;;25.60;43.10;;;;;;5053892;28;20028;-57
2021/09/06 10:57:39;;;;;;;13.05;7.25;;;25.60;43.10;;;;;;5054803;28;20156;-54
2021/09/06 11:00:14;;;;;;;13.05;7.05;;;25.60;43.10;;;;;;5053946;28;20276;-56
2021/09/06 11:02:40;;;;;;;13.77;7.35;;;25.60;43.10;;;;;;5072168;28;20063;-56
2021/09/06 11:05:07;;;;;;;14.40;7.93;;;25.60;43.00;;;;;;5071648;28;20029;-56
2021/09/06 11:07:33;;;;;;;9.50;6.88;;;25.60;43.00;;;;;;5071500;28;20602;-53
2021/09/06 11:10:15;;;;;;;11.93;7.30;;;25.60;43.00;;;;;;5053699;28;20024;-56
2021/09/06 11:12:56;;;;;;;12.35;7.53;;;25.70;43.20;;;;;;5054207;28;20399;-54
2021/09/06 11:15:27;;;;;;;12.50;7.30;;;25.70;43.10;;;;;;5072221;28;20107;-54
2021/09/06 11:18:01;;;;;;;15.70;8.00;;;25.70;43.10;;;;;;5054019;28;20027;-61
2021/09/06 11:20:28;;;;;;;11.20;7.00;;;25.70;43.20;;;;;;5072334;28;20020;-55
2021/09/06 11:23:01;;;;;;;16.83;8.07;;;25.70;43.20;;;;;;5071306;28;20032;-60
2021/09/06 11:25:30;;;;;;;16.80;8.02;;;25.70;43.20;;;;;;5053853;28;20045;-51
2021/09/06 11:28:08;;;;;;;13.02;8.15;;;25.80;43.30;;;;;;5070291;28;20068;-56
2021/09/06 11:30:36;;;;;;;17.20;7.38;;;25.80;43.30;;;;;;5070679;28;20032;-53
2021/09/06 11:33:06;;;;;;;11.57;7.45;;;25.80;43.30;;;;;;5052050;28;20025;-56
2021/09/06 11:35:36;;;;;;;14.68;8.15;;;25.80;43.30;;;;;;5070208;28;20028;-56
2021/09/06 11:38:03;;;;;;;16.20;8.25;;;25.80;43.40;;;;;;5052145;28;20025;-58
2021/09/06 11:40:29;;;;;;;10.65;8.05;;;25.80;43.30;;;;;;5071207;28;20040;-56
2021/09/06 11:42:59;;;;;;;12.73;7.82;;;25.90;43.40;;;;;;5052894;28;20025;-59
2021/09/06 11:45:25;;;;;;;15.02;8.38;;;25.80;43.30;;;;;;5070332;28;20454;-54
2021/09/06 11:47:51;;;;;;;15.07;8.50;;;25.90;43.30;;;;;;5069987;28;20025;-58
2021/09/06 11:50:20;;;;;;;15.88;7.65;;;25.90;43.30;;;;;;5069218;28;20331;-55
2021/09/06 11:52:47;;;;;;;17.45;8.25;;;25.90;43.30;;;;;;5070596;28;20119;-58
2021/09/06 11:55:19;;;;;;;14.35;8.25;;;25.90;43.30;;;;;;5050966;28;20051;-58
2021/09/06 11:57:46;;;;;;;20.50;8.88;;;25.90;43.30;;;;;;5052115;28;20040;-55
2021/09/06 12:00:15;;;;;;;18.88;8.70;;;25.90;43.30;;;;;;5068387;28;20040;-55
2021/09/06 12:02:52;;;;;;;15.88;8.70;;;25.90;43.20;;;;;;5069983;28;20028;-55
2021/09/06 12:05:19;;;;;;;29.73;9.00;;;25.90;43.20;;;;;;5047922;28;20069;-49
2021/09/06 12:07:46;;;;;;;56.20;9.48;;;25.90;43.40;;;;;;5051963;28;20028;-57
2021/09/06 12:10:26;;;;;;;30.00;8.63;;;25.90;43.50;;;;;;5068819;28;20099;-52
2021/09/06 12:13:03;;;;;;;24.63;8.73;;;25.90;43.40;;;;;;5069601;28;20097;-55
2021/09/06 12:15:31;;;;;;;20.23;9.48;;;25.90;43.50;;;;;;5069865;28;20021;-61
2021/09/06 12:18:13;;;;;;;15.20;8.75;;;26.00;43.60;;;;;;5051391;28;20032;-45
2021/09/06 12:20:41;;;;;;;20.70;9.18;;;26.00;43.70;;;;;;5051544;28;20429;-42
2021/09/06 12:23:08;;;;;;;44.58;9.88;;;26.00;43.70;;;;;;5069316;28;20070;-53
2021/09/06 12:25:36;;;;;;;409.02;28.40;;;26.00;43.70;;;;;;5051018;28;20510;-48
2021/09/06 12:28:14;;;;;;;235.73;16.48;;;26.10;44.10;;;;;;5066106;28;20040;-60
2021/09/06 12:30:42;;;;;;;39.00;9.75;;;26.10;43.90;;;;;;5051227;28;20037;-44
2021/09/06 12:33:12;;;;;;;24.63;9.27;;;26.40;43.70;;;;;;5067714;28;20031;-45
2021/09/06 12:35:38;;;;;;;20.10;8.75;;;26.80;43.50;;;;;;5052139;28;20043;-51
2021/09/06 12:38:06;;;;;;;21.42;9.50;;;27.10;43.20;;;;;;5069823;28;20457;-48
2021/09/06 12:40:33;;;;;;;16.95;9.80;;;27.30;42.70;;;;;;5051838;28;20353;-49